Time;durP1;ratioP1;P1;durP2;ratioP2;P2;SDS_P1;SDS_P2;PMS_P1;PMS_P2;Temp;Humidity;BMP_temperature;BMP_pressure;BME280_temperature;BME280_humidity;BME280_pressure;Samples;Min_cycle;Max_cycle;Signal;HPM_P1;HPM_P2
2022/01/04 00:01:13;;;;;;;3.67;1.90;;;21.40;46.70;;;;;;5078350;27;43527;-72
2022/01/04 00:03:43;;;;;;;4.00;1.80;;;21.40;46.80;;;;;;5045480;28;45731;-72
2022/01/04 00:06:10;;;;;;;3.70;1.92;;;21.40;46.70;;;;;;5044585;28;44267;-72
2022/01/04 00:08:38;;;;;;;4.45;2.25;;;21.40;46.70;;;;;;5078233;28;43469;-72
2022/01/04 00:11:15;;;;;;;4.38;2.20;;;21.30;46.70;;;;;;5077425;28;43547;-70
2022/01/04 00:13:44;;;;;;;3.42;1.92;;;21.30;46.70;;;;;;5093050;27;43923;-71
2022/01/04 00:16:12;;;;;;;4.03;2.03;;;21.30;46.80;;;;;;5046155;28;43551;-70
2022/01/04 00:18:40;;;;;;;5.05;2.28;;;21.30;46.80;;;;;;5043589;28;43463;-72
2022/01/04 00:21:08;;;;;;;5.82;2.30;;;21.30;46.90;;;;;;5064001;28;43413;-72
2022/01/04 00:23:36;;;;;;;4.20;1.80;;;21.30;46.80;;;;;;5049675;28;45521;-70
2022/01/04 00:26:03;;;;;;;4.22;2.20;;;21.30;46.80;;;;;;5079265;27;43577;-71
2022/01/04 00:28:31;;;;;;;4.57;2.20;;;21.30;46.90;;;;;;5040989;28;43430;-72
2022/01/04 00:30:58;;;;;;;4.63;2.00;;;21.30;46.90;;;;;;5079984;27;43502;-70
2022/01/04 00:33:26;;;;;;;4.47;2.33;;;21.20;46.80;;;;;;5043716;28;45692;-72
2022/01/04 00:35:53;;;;;;;4.68;2.00;;;21.20;46.80;;;;;;5078577;27;43998;-72
2022/01/04 00:38:21;;;;;;;4.45;2.13;;;21.20;46.80;;;;;;5041895;28;43466;-72
2022/01/04 00:40:48;;;;;;;4.43;2.15;;;21.20;46.80;;;;;;5045475;28;43412;-70
2022/01/04 00:43:15;;;;;;;5.22;1.90;;;21.20;46.80;;;;;;5044404;28;45403;-73
2022/01/04 00:45:45;;;;;;;3.53;1.80;;;21.20;46.90;;;;;;5050584;28;43456;-71
2022/01/04 00:50:41;;;;;;;4.13;2.20;;;21.20;46.90;;;;;;5077280;27;43534;-70
2022/01/04 00:53:09;;;;;;;5.22;2.00;;;21.10;46.80;;;;;;5078173;27;44066;-73
2022/01/04 00:55:37;;;;;;;4.75;2.13;;;21.20;46.90;;;;;;5076941;28;44637;-70
2022/01/04 00:58:05;;;;;;;4.05;2.00;;;21.10;46.80;;;;;;5078252;27;44008;-70
2022/01/04 01:00:34;;;;;;;5.03;2.22;;;21.10;47.50;;;;;;5076713;28;43461;-71
2022/01/04 01:03:06;;;;;;;4.00;1.83;;;21.10;46.80;;;;;;5027816;28;45693;-72
2022/01/04 01:05:33;;;;;;;;;;;21.10;46.90;;;;;;5076947;28;44646;-72
2022/01/04 01:08:01;;;;;;;6.15;2.35;;;21.10;46.90;;;;;;5035086;28;43455;-71
2022/01/04 01:10:47;;;;;;;4.07;1.90;;;21.10;46.90;;;;;;5077041;28;43490;-72
2022/01/04 01:13:16;;;;;;;4.32;2.15;;;21.10;46.90;;;;;;5085587;27;43960;-71
2022/01/04 01:15:45;;;;;;;4.13;2.00;;;21.10;46.90;;;;;;5042780;28;43511;-71
2022/01/04 01:18:16;;;;;;;5.30;2.20;;;21.10;46.90;;;;;;5045785;28;43479;-70
2022/01/04 01:20:48;;;;;;;5.75;2.50;;;21.00;46.90;;;;;;5078188;27;43562;-72
2022/01/04 01:23:19;;;;;;;5.28;2.55;;;21.00;47.00;;;;;;5076402;28;43934;-71
2022/01/04 01:25:47;;;;;;;4.33;2.30;;;21.00;47.00;;;;;;5076516;28;44723;-72
2022/01/04 01:28:15;;;;;;;4.32;2.35;;;21.00;47.00;;;;;;5078103;27;43470;-72
2022/01/04 01:30:44;;;;;;;2.92;1.70;;;21.00;47.00;;;;;;5077345;27;43507;-71
2022/01/04 01:33:12;;;;;;;5.90;2.30;;;21.00;47.00;;;;;;5076095;27;45274;-69
2022/01/04 01:35:41;;;;;;;3.65;2.10;;;21.00;47.10;;;;;;5041493;28;45130;-70
2022/01/04 01:38:09;;;;;;;3.80;1.80;;;20.90;47.00;;;;;;5042411;28;43477;-70
2022/01/04 01:40:37;;;;;;;4.40;1.80;;;21.00;47.10;;;;;;5042526;28;43492;-73
2022/01/04 01:43:07;;;;;;;4.90;2.05;;;20.90;47.10;;;;;;5042505;28;43954;-71
2022/01/04 01:45:35;;;;;;;3.40;1.80;;;20.90;47.00;;;;;;5057741;28;44845;-70
2022/01/04 01:48:04;;;;;;;5.18;2.13;;;20.90;47.10;;;;;;5065397;27;43447;-72
2022/01/04 01:50:31;;;;;;;3.38;1.83;;;21.00;47.20;;;;;;5074092;27;43461;-72
2022/01/04 01:52:59;;;;;;;5.40;2.35;;;21.00;47.10;;;;;;5042067;28;46213;-70
2022/01/04 01:55:27;;;;;;;4.32;1.90;;;20.90;47.10;;;;;;5043041;28;43451;-72
2022/01/04 01:57:56;;;;;;;4.15;1.98;;;20.90;47.20;;;;;;5075555;28;43996;-70
2022/01/04 02:00:26;;;;;;;4.45;2.10;;;20.90;47.20;;;;;;5077096;27;44087;-72
2022/01/04 02:02:55;;;;;;;4.15;2.03;;;20.90;47.20;;;;;;5046255;28;45607;-71
2022/01/04 02:05:23;;;;;;;3.35;1.60;;;20.90;47.20;;;;;;5079235;28;44499;-71
2022/01/04 02:07:51;;;;;;;4.45;1.80;;;20.90;47.90;;;;;;5047345;28;43520;-71
2022/01/04 02:10:19;;;;;;;3.65;1.98;;;20.90;47.20;;;;;;5045724;28;43479;-71
2022/01/04 02:12:47;;;;;;;3.35;1.70;;;20.90;47.30;;;;;;5044902;28;44612;-70
2022/01/04 02:15:18;;;;;;;4.20;2.25;;;20.80;47.30;;;;;;5078723;28;43447;-70
2022/01/04 02:17:45;;;;;;;5.07;2.00;;;20.80;47.30;;;;;;5081006;27;43392;-71
2022/01/04 02:20:14;;;;;;;4.75;1.92;;;20.80;47.30;;;;;;5079665;27;43476;-72
2022/01/04 02:22:42;;;;;;;4.03;2.13;;;20.80;47.30;;;;;;5043347;28;45993;-73
2022/01/04 02:25:11;;;;;;;2.60;1.80;;;20.80;47.90;;;;;;5077688;27;44583;-71
2022/01/04 02:27:40;;;;;;;5.05;2.13;;;20.80;47.30;;;;;;5072505;27;43582;-71
2022/01/04 02:30:12;;;;;;;4.18;1.95;;;20.90;47.30;;;;;;5080062;27;43506;-71
2022/01/04 02:32:39;;;;;;;3.85;1.77;;;20.80;47.30;;;;;;5043901;28;44127;-70
2022/01/04 02:35:07;;;;;;;4.05;2.00;;;20.80;47.30;;;;;;5044404;28;44437;-71
2022/01/04 02:37:35;;;;;;;4.60;2.10;;;20.80;47.30;;;;;;5078507;28;43464;-72
2022/01/04 02:40:03;;;;;;;5.35;2.00;;;20.80;47.30;;;;;;5080181;27;43617;-72
2022/01/04 02:42:31;;;;;;;5.38;2.10;;;20.80;47.30;;;;;;5079855;27;45282;-71
2022/01/04 02:45:00;;;;;;;6.28;2.17;;;20.80;47.30;;;;;;5064107;28;43426;-70
2022/01/04 02:47:32;;;;;;;3.97;2.03;;;20.80;47.30;;;;;;5028416;28;43575;-71
2022/01/04 02:50:00;;;;;;;4.68;2.15;;;20.80;47.30;;;;;;5046757;28;44039;-71
2022/01/04 02:52:27;;;;;;;5.20;2.30;;;20.80;47.30;;;;;;5042822;28;43809;-71
2022/01/04 02:54:55;;;;;;;4.50;2.10;;;20.70;47.30;;;;;;5079022;28;43529;-71
2022/01/04 02:57:22;;;;;;;5.15;2.30;;;20.70;47.20;;;;;;5079120;28;43411;-71
2022/01/04 02:59:50;;;;;;;5.05;2.13;;;20.70;47.30;;;;;;5045155;28;43426;-69
2022/01/04 03:02:18;;;;;;;4.05;2.00;;;20.70;47.20;;;;;;5041591;28;44106;-70
2022/01/04 03:04:47;;;;;;;4.30;1.92;;;20.70;47.40;;;;;;5079800;27;43447;-71
2022/01/04 03:07:15;;;;;;;4.20;1.90;;;20.60;47.30;;;;;;5080558;27;43447;-70
2022/01/04 03:09:42;;;;;;;3.08;1.80;;;20.70;47.40;;;;;;5044901;28;43568;-71
2022/01/04 03:12:10;;;;;;;3.88;1.90;;;20.70;47.30;;;;;;5060501;28;44204;-70
2022/01/04 03:14:37;;;;;;;3.70;1.80;;;20.70;47.40;;;;;;5078827;27;44383;-71
2022/01/04 03:17:05;;;;;;;4.70;2.10;;;20.70;47.40;;;;;;5078065;28;43446;-69
2022/01/04 03:19:33;;;;;;;5.28;1.83;;;20.60;47.40;;;;;;5078600;28;43460;-72
2022/01/04 03:22:02;;;;;;;3.40;1.75;;;20.60;47.40;;;;;;5046536;28;45690;-71
2022/01/04 03:24:30;;;;;;;4.43;1.98;;;20.60;47.40;;;;;;5039748;28;45254;-70
2022/01/04 03:26:57;;;;;;;3.70;2.17;;;20.60;47.40;;;;;;5060892;28;43456;-70
2022/01/04 03:29:25;;;;;;;4.63;2.03;;;20.60;47.40;;;;;;5079303;27;43452;-70
2022/01/04 03:31:57;;;;;;;4.78;2.10;;;20.60;47.40;;;;;;5062020;28;45464;-71
2022/01/04 03:34:25;;;;;;;4.15;2.00;;;20.60;47.50;;;;;;5079620;27;43573;-71
2022/01/04 03:36:55;;;;;;;4.07;1.88;;;20.60;47.40;;;;;;5079182;27;43405;-72
2022/01/04 03:39:22;;;;;;;4.75;2.42;;;20.60;47.50;;;;;;5044407;28;43449;-69
2022/01/04 03:41:51;;;;;;;4.13;1.90;;;20.60;47.40;;;;;;5079394;27;44680;-70
2022/01/04 03:44:20;;;;;;;5.65;2.08;;;20.50;47.40;;;;;;5061158;28;44970;-71
2022/01/04 03:46:53;;;;;;;4.00;2.20;;;20.50;47.40;;;;;;5045012;28;43478;-70
2022/01/04 03:49:21;;;;;;;3.97;2.13;;;20.60;47.50;;;;;;5078834;27;43502;-71
2022/01/04 03:51:50;;;;;;;5.00;2.30;;;20.60;47.60;;;;;;5044273;28;44125;-70
2022/01/04 03:54:19;;;;;;;5.45;2.35;;;20.60;47.50;;;;;;5077758;28;44841;-72
2022/01/04 03:56:47;;;;;;;5.32;1.83;;;20.60;47.50;;;;;;5043710;28;43449;-72
2022/01/04 03:59:15;;;;;;;4.97;2.10;;;20.50;47.50;;;;;;5079523;27;43653;-69
2022/01/04 04:01:43;;;;;;;3.90;2.10;;;20.50;47.50;;;;;;5043615;28;44326;-72
2022/01/04 04:04:11;;;;;;;5.40;2.38;;;20.50;47.50;;;;;;5062217;28;43372;-68
2022/01/04 04:06:40;;;;;;;5.82;2.28;;;20.50;47.60;;;;;;5043948;28;44120;-71
2022/01/04 04:09:08;;;;;;;4.53;2.15;;;20.50;47.60;;;;;;5079980;27;43946;-71
2022/01/04 04:11:35;;;;;;;2.83;1.70;;;20.50;47.60;;;;;;5076259;27;45401;-72
2022/01/04 04:14:03;;;;;;;4.65;2.20;;;20.40;47.50;;;;;;5043947;28;44427;-71
2022/01/04 04:16:33;;;;;;;3.17;1.75;;;20.50;47.60;;;;;;5078790;27;43471;-69
2022/01/04 04:19:00;;;;;;;3.78;1.90;;;20.40;47.60;;;;;;5053103;28;43567;-72
2022/01/04 04:21:28;;;;;;;5.93;2.30;;;20.40;47.60;;;;;;5077094;28;43940;-70
2022/01/04 04:23:55;;;;;;;4.55;1.95;;;20.40;47.60;;;;;;5076981;27;43525;-70
2022/01/04 04:26:23;;;;;;;4.82;2.30;;;20.40;47.60;;;;;;5078513;27;43442;-72
2022/01/04 04:28:50;;;;;;;4.97;2.15;;;20.40;47.60;;;;;;5078871;27;43676;-71
2022/01/04 04:31:18;;;;;;;3.03;1.92;;;20.40;47.60;;;;;;5057823;28;45263;-72
2022/01/04 04:33:45;;;;;;;4.53;2.10;;;20.40;47.60;;;;;;5043443;28;44274;-70
2022/01/04 04:36:13;;;;;;;4.85;2.03;;;20.40;47.60;;;;;;5076966;28;43435;-71
2022/01/04 04:38:40;;;;;;;4.07;2.08;;;20.40;47.70;;;;;;5078908;28;43526;-71
2022/01/04 04:41:07;;;;;;;3.50;1.90;;;20.30;47.60;;;;;;5043090;28;45724;-72
2022/01/04 04:43:35;;;;;;;5.20;2.05;;;20.40;47.70;;;;;;5076962;28;44686;-70
2022/01/04 04:46:03;;;;;;;4.50;2.05;;;20.30;47.70;;;;;;5028182;28;43391;-71
2022/01/04 04:48:30;;;;;;;3.47;1.98;;;20.30;47.60;;;;;;5077655;28;43601;-72
2022/01/04 04:50:58;;;;;;;5.05;1.85;;;20.30;47.60;;;;;;5076185;27;43939;-70
2022/01/04 04:53:25;;;;;;;5.85;2.30;;;20.30;47.60;;;;;;5075779;27;44025;-70
2022/01/04 04:55:53;;;;;;;4.80;2.22;;;20.30;47.60;;;;;;5077203;27;43944;-72
2022/01/04 04:58:20;;;;;;;4.95;2.08;;;20.30;47.70;;;;;;5060249;28;43624;-71
2022/01/04 05:00:48;;;;;;;5.35;2.22;;;20.30;47.60;;;;;;5078000;27;45478;-72
2022/01/04 05:03:15;;;;;;;4.82;2.10;;;20.30;47.60;;;;;;5076523;28;45143;-72
2022/01/04 05:05:43;;;;;;;4.63;2.20;;;20.30;47.60;;;;;;5050623;28;43403;-71
2022/01/04 05:08:10;;;;;;;3.92;2.00;;;20.30;47.60;;;;;;5074776;28;44131;-72
2022/01/04 05:10:38;;;;;;;4.60;2.00;;;20.30;47.70;;;;;;5044404;28;45357;-71
2022/01/04 05:13:05;;;;;;;5.13;2.25;;;20.30;47.70;;;;;;5043590;28;43813;-70
2022/01/04 05:15:33;;;;;;;3.85;2.03;;;20.30;47.70;;;;;;5043879;28;43476;-72
2022/01/04 05:18:00;;;;;;;5.47;2.50;;;20.30;47.70;;;;;;5078455;27;43551;-71
2022/01/04 05:20:28;;;;;;;4.28;2.25;;;20.30;47.70;;;;;;5042785;28;43801;-71
2022/01/04 05:22:55;;;;;;;5.18;2.42;;;20.30;47.70;;;;;;5076340;28;43514;-70
2022/01/04 05:25:23;;;;;;;3.78;1.90;;;20.30;47.70;;;;;;5076684;28;44003;-70
2022/01/04 05:27:50;;;;;;;4.50;2.38;;;20.20;47.60;;;;;;5076426;28;43702;-71
2022/01/04 05:30:18;;;;;;;4.18;2.00;;;20.20;47.70;;;;;;5077620;27;45454;-72
2022/01/04 05:32:46;;;;;;;4.97;1.95;;;20.20;47.70;;;;;;5043664;28;43531;-69
2022/01/04 05:35:14;;;;;;;4.38;2.13;;;20.20;47.70;;;;;;5042874;28;43459;-69
2022/01/04 05:37:41;;;;;;;4.45;2.13;;;20.20;47.70;;;;;;5080812;28;43471;-68
2022/01/04 05:40:09;;;;;;;3.92;2.13;;;20.20;47.70;;;;;;5063727;28;45357;-69
2022/01/04 05:42:37;;;;;;;4.82;2.25;;;20.20;47.70;;;;;;5066898;28;43845;-68
2022/01/04 05:45:05;;;;;;;5.78;2.20;;;20.20;47.70;;;;;;5080821;28;43420;-69
2022/01/04 05:47:32;;;;;;;4.35;2.20;;;20.20;47.70;;;;;;5064137;28;43629;-69
2022/01/04 05:50:00;;;;;;;3.40;1.85;;;20.20;47.70;;;;;;5082099;27;45335;-71
2022/01/04 05:52:27;;;;;;;5.55;2.17;;;20.20;47.70;;;;;;5080693;27;43447;-72
2022/01/04 05:54:55;;;;;;;4.55;1.90;;;20.20;47.70;;;;;;5048273;28;43912;-71
2022/01/04 05:57:22;;;;;;;4.68;1.92;;;20.20;47.70;;;;;;5079690;28;43552;-71
2022/01/04 05:59:50;;;;;;;3.92;2.00;;;20.20;47.70;;;;;;5062730;28;45510;-70
2022/01/04 06:02:18;;;;;;;4.13;2.05;;;20.20;47.70;;;;;;5079499;27;44392;-70
2022/01/04 06:04:45;;;;;;;6.75;2.28;;;20.20;47.70;;;;;;5047914;28;43419;-71
2022/01/04 06:07:12;;;;;;;5.03;2.20;;;20.20;47.70;;;;;;5079523;28;43494;-71
2022/01/04 06:09:45;;;;;;;4.68;2.30;;;20.20;47.70;;;;;;5072645;27;43940;-72
2022/01/04 06:15:16;;;;;;;4.78;2.38;;;20.20;47.70;;;;;;4980310;28;43486;-70
2022/01/04 06:17:49;;;;;;;6.15;2.38;;;20.20;47.70;;;;;;5079545;28;43455;-73
2022/01/04 06:20:21;;;;;;;4.53;1.98;;;20.20;47.70;;;;;;5080628;27;45305;-70
2022/01/04 06:22:50;;;;;;;3.63;2.03;;;20.20;47.70;;;;;;5045563;28;43440;-72
2022/01/04 06:25:20;;;;;;;4.22;2.08;;;20.20;47.70;;;;;;5047519;28;43413;-70
2022/01/04 06:27:50;;;;;;;3.97;1.85;;;20.20;47.80;;;;;;5078984;28;43458;-70
2022/01/04 06:30:20;;;;;;;4.67;2.20;;;20.20;47.70;;;;;;5046625;28;44131;-72
2022/01/04 06:32:51;;;;;;;4.72;2.42;;;20.20;47.70;;;;;;5079049;27;43479;-72
2022/01/04 06:35:18;;;;;;;3.03;1.80;;;20.20;47.70;;;;;;5046695;28;43650;-72
2022/01/04 06:37:46;;;;;;;3.72;1.92;;;20.20;47.70;;;;;;5079017;28;43529;-70
2022/01/04 06:40:14;;;;;;;2.30;1.60;;;20.20;47.70;;;;;;5046467;28;44963;-70
2022/01/04 06:42:42;;;;;;;3.40;1.70;;;20.20;47.60;;;;;;5079615;27;45046;-71
2022/01/04 06:45:11;;;;;;;3.53;1.80;;;20.20;47.70;;;;;;5062748;28;43479;-68
2022/01/04 06:47:39;;;;;;;4.70;2.10;;;20.20;47.70;;;;;;5078355;28;43471;-71
2022/01/04 06:50:07;;;;;;;3.50;1.58;;;20.20;47.60;;;;;;5045513;28;43942;-73
2022/01/04 06:52:35;;;;;;;4.85;1.77;;;20.20;47.70;;;;;;5045475;28;44667;-72
2022/01/04 06:55:02;;;;;;;3.50;1.67;;;20.20;47.60;;;;;;5079057;28;43476;-69
2022/01/04 06:57:30;;;;;;;3.33;1.48;;;20.20;47.60;;;;;;5078721;28;43459;-69
2022/01/04 06:59:57;;;;;;;3.88;1.85;;;20.30;47.70;;;;;;5044952;28;44654;-70
2022/01/04 07:02:25;;;;;;;3.92;1.70;;;20.30;48.30;;;;;;5045740;28;43457;-71
2022/01/04 07:04:52;;;;;;;3.22;1.60;;;20.30;47.60;;;;;;5080453;27;44016;-70
2022/01/04 07:07:20;;;;;;;3.38;1.80;;;20.30;47.70;;;;;;5040594;28;43423;-70
2022/01/04 07:09:48;;;;;;;2.30;1.42;;;20.30;47.60;;;;;;5046937;28;45608;-70
2022/01/04 07:12:15;;;;;;;3.40;1.77;;;20.30;47.60;;;;;;5076000;28;43615;-70
2022/01/04 07:14:43;;;;;;;3.67;1.80;;;20.30;47.60;;;;;;5078418;28;43492;-70
2022/01/04 07:17:10;;;;;;;3.88;1.80;;;20.40;47.60;;;;;;5078724;28;43491;-70
2022/01/04 07:19:39;;;;;;;2.22;1.60;;;20.40;47.60;;;;;;5077891;28;43572;-70
2022/01/04 07:22:06;;;;;;;8.30;2.05;;;20.40;47.60;;;;;;5044543;28;45326;-69
2022/01/04 07:24:34;;;;;;;3.85;1.88;;;20.40;47.60;;;;;;5079368;27;43528;-70
2022/01/04 07:27:01;;;;;;;3.42;1.83;;;20.40;47.60;;;;;;5045339;28;43443;-71
2022/01/04 07:29:29;;;;;;;3.88;1.70;;;20.40;47.50;;;;;;5078385;28;45925;-70
2022/01/04 07:31:58;;;;;;;4.28;1.60;;;20.50;47.60;;;;;;5047290;28;43415;-69
2022/01/04 07:34:25;;;;;;;3.03;1.60;;;20.50;47.50;;;;;;5079205;27;43467;-70
2022/01/04 07:36:53;;;;;;;2.25;1.48;;;20.50;47.60;;;;;;5076868;28;43471;-68
2022/01/04 07:39:20;;;;;;;2.70;1.58;;;20.50;47.50;;;;;;5044082;28;44114;-69
2022/01/04 07:41:48;;;;;;;2.28;1.20;;;20.50;47.50;;;;;;5061651;28;43544;-70
2022/01/04 07:44:15;;;;;;;3.50;1.63;;;20.50;47.50;;;;;;5078169;28;43408;-71
2022/01/04 07:46:43;;;;;;;3.00;1.60;;;20.50;47.50;;;;;;5044587;28;43975;-71
2022/01/04 07:49:10;;;;;;;3.08;1.60;;;20.50;47.50;;;;;;5043785;28;45673;-70
2022/01/04 07:51:38;;;;;;;3.00;1.48;;;20.60;47.50;;;;;;5043630;28;44051;-69
2022/01/04 07:54:05;;;;;;;3.15;1.83;;;20.60;47.60;;;;;;5037677;28;43523;-70
2022/01/04 07:56:33;;;;;;;2.88;1.60;;;20.60;47.60;;;;;;5039068;28;43586;-69
2022/01/04 07:59:01;;;;;;;2.65;1.55;;;20.60;47.60;;;;;;5074085;28;46195;-68
2022/01/04 08:01:29;;;;;;;2.80;1.77;;;20.60;47.60;;;;;;5075902;27;44366;-70
2022/01/04 08:03:59;;;;;;;3.63;1.80;;;20.60;47.60;;;;;;5066254;28;43431;-70
2022/01/04 08:06:27;;;;;;;3.15;1.80;;;20.70;47.60;;;;;;5076407;27;43502;-71
2022/01/04 08:08:55;;;;;;;2.60;1.48;;;20.70;47.60;;;;;;5075429;27;45407;-69
2022/01/04 08:11:22;;;;;;;3.25;1.63;;;20.70;47.60;;;;;;5041101;28;44265;-70
2022/01/04 08:13:50;;;;;;;2.70;1.48;;;20.70;47.50;;;;;;5041977;28;43602;-68
2022/01/04 08:16:17;;;;;;;3.70;1.77;;;20.70;47.50;;;;;;5086569;27;43512;-70
2022/01/04 08:18:45;;;;;;;2.25;1.50;;;20.80;47.50;;;;;;5075168;27;43940;-67
2022/01/04 08:21:31;;;;;;;2.75;1.40;;;20.80;47.50;;;;;;5040131;28;43511;-68
2022/01/04 08:23:59;;;;;;;3.65;1.75;;;20.80;47.60;;;;;;5040500;28;43546;-68
2022/01/04 08:26:28;;;;;;;2.90;1.50;;;20.80;47.60;;;;;;5058556;28;43518;-70
2022/01/04 08:28:56;;;;;;;3.72;1.60;;;20.80;47.50;;;;;;5075041;28;44461;-70
2022/01/04 08:31:24;;;;;;;4.07;1.70;;;20.80;47.50;;;;;;5075059;28;45217;-68
2022/01/04 08:33:53;;;;;;;2.47;1.63;;;20.90;47.60;;;;;;5057428;28;43483;-69
2022/01/04 08:36:22;;;;;;;1.83;1.25;;;20.90;47.50;;;;;;5075332;27;43474;-68
2022/01/04 08:38:49;;;;;;;2.10;1.40;;;20.90;47.60;;;;;;5039496;28;44068;-69
2022/01/04 08:41:16;;;;;;;2.45;1.48;;;20.90;47.50;;;;;;5041049;28;43481;-69
2022/01/04 08:43:44;;;;;;;2.85;1.50;;;20.90;47.50;;;;;;5057211;28;43433;-70
2022/01/04 08:46:12;;;;;;;1.92;1.17;;;21.00;47.50;;;;;;5074812;28;43535;-71
2022/01/04 08:48:40;;;;;;;3.10;1.50;;;21.00;47.50;;;;;;5041130;28;44180;-69
2022/01/04 08:51:07;;;;;;;1.80;1.27;;;21.00;47.40;;;;;;5041008;28;44665;-70
2022/01/04 08:53:36;;;;;;;2.17;1.35;;;21.00;47.40;;;;;;5041251;28;43443;-70
2022/01/04 08:56:04;;;;;;;1.88;1.20;;;21.00;47.40;;;;;;5043038;28;43563;-70
2022/01/04 08:58:32;;;;;;;2.72;1.40;;;21.00;47.40;;;;;;5074691;28;45726;-71
2022/01/04 09:01:02;;;;;;;1.70;1.10;;;21.00;47.40;;;;;;5040913;28;44807;-69
2022/01/04 09:03:30;;;;;;;2.83;1.20;;;21.10;47.50;;;;;;5071193;27;43523;-70
2022/01/04 09:05:58;;;;;;;1.55;1.00;;;21.10;47.60;;;;;;5036534;28;43530;-69
2022/01/04 09:08:25;;;;;;;1.30;0.95;;;21.10;47.60;;;;;;5074723;28;45156;-68
2022/01/04 09:10:54;;;;;;;1.88;1.02;;;21.20;47.70;;;;;;5077599;27;43700;-70
2022/01/04 09:13:23;;;;;;;1.27;0.82;;;21.10;47.80;;;;;;5027005;28;43604;-70
2022/01/04 09:18:43;;;;;;;1.38;0.90;;;21.10;48.30;;;;;;5074397;28;43472;-70
2022/01/04 09:18:48;;;;;;;1.98;1.08;;;21.20;47.70;;;;;;5043962;28;43927;-67
2022/01/04 09:21:26;;;;;;;2.15;1.10;;;21.20;47.80;;;;;;5044056;28;43961;-69
2022/01/04 09:23:56;;;;;;;3.08;1.00;;;21.20;47.70;;;;;;5043836;28;43526;-68
2022/01/04 09:26:26;;;;;;;1.65;1.02;;;21.20;47.70;;;;;;5078150;28;43661;-68
2022/01/04 09:28:54;;;;;;;1.20;0.80;;;21.20;47.60;;;;;;5040928;28;44069;-67
2022/01/04 09:31:23;;;;;;;3.53;1.20;;;21.20;47.70;;;;;;5042056;28;43411;-67
2022/01/04 09:33:53;;;;;;;1.77;1.20;;;21.20;47.50;;;;;;5075701;28;43509;-67
2022/01/04 09:36:28;;;;;;;1.38;0.70;;;21.20;47.50;;;;;;5078178;27;43451;-71
2022/01/04 09:38:56;;;;;;;1.05;0.80;;;21.20;47.50;;;;;;5046494;28;46090;-70
2022/01/04 09:41:24;;;;;;;1.90;0.95;;;21.20;47.50;;;;;;5080088;27;43460;-72
2022/01/04 09:43:52;;;;;;;1.70;0.90;;;21.20;47.50;;;;;;5077222;27;43625;-69
2022/01/04 09:46:20;;;;;;;0.85;0.50;;;21.20;47.50;;;;;;5077929;27;43458;-69
2022/01/04 09:48:47;;;;;;;2.30;0.85;;;21.20;47.50;;;;;;5060141;28;45817;-68
2022/01/04 09:51:16;;;;;;;2.08;1.17;;;21.20;47.60;;;;;;5043852;28;43551;-67
2022/01/04 09:53:43;;;;;;;1.13;0.70;;;21.30;47.50;;;;;;5073430;27;43573;-67
2022/01/04 09:56:11;;;;;;;1.20;0.80;;;21.30;47.60;;;;;;5041652;28;43494;-71
2022/01/04 09:58:39;;;;;;;1.13;0.63;;;21.30;47.50;;;;;;5044778;28;43577;-72
2022/01/04 10:01:06;;;;;;;1.58;0.73;;;21.40;47.50;;;;;;5077264;27;43554;-67
2022/01/04 10:03:35;;;;;;;1.92;1.00;;;21.40;47.50;;;;;;5057343;28;43561;-69
2022/01/04 10:06:15;;;;;;;0.88;0.60;;;21.40;47.40;;;;;;5072419;27;43500;-69
2022/01/04 10:08:55;;;;;;;1.65;0.85;;;21.40;47.30;;;;;;5079156;27;44549;-70
2022/01/04 10:11:58;;;;;;;0.90;0.65;;;21.40;47.40;;;;;;5076614;28;44273;-68
2022/01/04 10:14:35;;;;;;;1.35;0.60;;;21.40;47.40;;;;;;5001414;28;43486;-69
2022/01/04 10:17:06;;;;;;;1.02;0.73;;;21.50;47.40;;;;;;5075602;27;43516;-68
2022/01/04 10:19:43;;;;;;;1.13;0.55;;;21.50;47.40;;;;;;5042884;28;43933;-69
2022/01/04 10:22:16;;;;;;;2.22;0.77;;;21.50;47.40;;;;;;5074558;27;43449;-70
2022/01/04 10:24:49;;;;;;;1.48;0.70;;;21.50;47.30;;;;;;5076212;27;43507;-71
2022/01/04 10:27:26;;;;;;;1.42;0.70;;;21.50;47.40;;;;;;5042872;28;43513;-68
2022/01/04 10:30:12;;;;;;;1.40;0.70;;;21.50;47.30;;;;;;5076207;28;45385;-69
2022/01/04 10:32:58;;;;;;;0.93;0.63;;;21.50;47.20;;;;;;5043399;28;44768;-70
2022/01/04 10:35:33;;;;;;;1.08;0.52;;;21.60;47.30;;;;;;5041012;28;43430;-70
2022/01/04 10:38:20;;;;;;;0.63;0.50;;;21.60;47.20;;;;;;5076979;27;43550;-71
2022/01/04 10:41:00;;;;;;;2.60;0.65;;;21.60;47.20;;;;;;5076438;28;44663;-69
2022/01/04 10:43:30;;;;;;;2.63;0.60;;;21.60;47.10;;;;;;5075607;27;44960;-68
2022/01/04 10:46:00;;;;;;;1.77;0.40;;;21.60;47.20;;;;;;5042884;28;43487;-70
2022/01/04 10:48:34;;;;;;;2.00;0.68;;;21.60;47.20;;;;;;5026194;28;43596;-69
2022/01/04 10:51:13;;;;;;;1.05;0.60;;;21.60;47.20;;;;;;5077817;27;44197;-68
2022/01/04 10:53:51;;;;;;;1.00;0.70;;;21.60;47.10;;;;;;5044686;28;43518;-72
2022/01/04 10:56:31;;;;;;;0.73;0.60;;;21.70;47.10;;;;;;5042887;28;43529;-71
2022/01/04 10:59:01;;;;;;;1.05;0.50;;;21.70;47.10;;;;;;5025566;28;43527;-69
2022/01/04 11:01:38;;;;;;;2.65;0.95;;;21.70;47.00;;;;;;5044082;28;44054;-70
2022/01/04 11:04:18;;;;;;;1.65;0.60;;;21.70;47.00;;;;;;5040436;28;43817;-69
2022/01/04 11:06:47;;;;;;;1.10;0.60;;;21.70;47.00;;;;;;5065494;27;43630;-71
2022/01/04 11:09:18;;;;;;;0.82;0.40;;;21.70;47.10;;;;;;5042310;28;43549;-67
2022/01/04 11:11:46;;;;;;;1.10;0.55;;;21.70;47.00;;;;;;5075311;27;46176;-70
2022/01/04 11:14:14;;;;;;;0.50;0.50;;;21.80;47.20;;;;;;5077307;27;44705;-68
2022/01/04 11:16:43;;;;;;;1.55;0.70;;;21.80;47.10;;;;;;5076618;28;43572;-72
2022/01/04 11:19:11;;;;;;;1.88;0.60;;;21.80;47.00;;;;;;5042982;28;43588;-71
2022/01/04 11:21:44;;;;;;;1.38;0.50;;;21.80;47.00;;;;;;5076266;28;44709;-70
2022/01/04 11:24:16;;;;;;;0.88;0.40;;;21.80;47.00;;;;;;5077744;27;43576;-72
2022/01/04 11:26:47;;;;;;;2.00;0.80;;;21.80;46.90;;;;;;5078411;27;43429;-73
2022/01/04 11:29:16;;;;;;;1.05;0.60;;;21.90;47.00;;;;;;5075395;27;43817;-71
2022/01/04 11:32:05;;;;;;;0.80;0.47;;;21.90;46.90;;;;;;5075498;28;43989;-70
2022/01/04 11:34:58;;;;;;;0.95;0.60;;;21.80;46.80;;;;;;5041128;28;43477;-70
2022/01/04 11:37:26;;;;;;;0.30;0.30;;;21.90;46.90;;;;;;5043111;28;43526;-70
2022/01/04 11:39:54;;;;;;;0.73;0.47;;;21.90;46.90;;;;;;5044185;28;43677;-69
2022/01/04 11:42:37;;;;;;;1.13;0.50;;;21.90;46.90;;;;;;5041388;28;43868;-70
2022/01/04 11:45:10;;;;;;;1.25;0.52;;;21.90;46.80;;;;;;5043433;28;43454;-72
2022/01/04 11:47:45;;;;;;;1.23;0.52;;;21.90;46.90;;;;;;5041410;28;43450;-71
2022/01/04 11:50:21;;;;;;;2.75;0.65;;;21.90;47.00;;;;;;5075820;27;43580;-71
2022/01/04 11:52:59;;;;;;;1.65;0.63;;;21.80;46.90;;;;;;5041516;28;43906;-69
2022/01/04 11:55:37;;;;;;;1.02;0.63;;;21.90;46.90;;;;;;5074209;28;43473;-72
2022/01/04 11:58:09;;;;;;;1.73;0.80;;;21.90;46.90;;;;;;5042068;28;43498;-70
2022/01/04 12:00:40;;;;;;;1.00;0.60;;;21.90;46.80;;;;;;5091151;27;43644;-72
2022/01/04 12:03:19;;;;;;;1.45;0.65;;;22.00;46.70;;;;;;5041577;28;43699;-70
2022/01/04 12:05:56;;;;;;;1.05;0.50;;;22.00;46.70;;;;;;5074226;28;44717;-67
2022/01/04 12:08:26;;;;;;;2.05;0.60;;;22.00;46.60;;;;;;5034358;28;43597;-71
2022/01/04 12:10:56;;;;;;;1.45;0.60;;;22.00;46.60;;;;;;5041812;28;43657;-69
2022/01/04 12:13:44;;;;;;;1.45;0.75;;;22.00;46.60;;;;;;5041000;28;45068;-71
2022/01/04 12:16:12;;;;;;;1.80;0.80;;;22.00;46.70;;;;;;5073252;28;43569;-70
2022/01/04 12:18:39;;;;;;;1.20;0.60;;;22.00;46.60;;;;;;5073763;27;43425;-72
2022/01/04 12:21:13;;;;;;;1.92;0.70;;;22.00;46.70;;;;;;5075969;28;43585;-72
2022/01/04 12:23:43;;;;;;;1.50;0.55;;;22.00;46.60;;;;;;5073405;27;45385;-72
2022/01/04 12:26:12;;;;;;;1.30;0.65;;;22.00;46.60;;;;;;5073473;27;44581;-71
2022/01/04 12:28:45;;;;;;;0.90;0.57;;;22.00;46.60;;;;;;5074268;28;43973;-68
2022/01/04 12:31:24;;;;;;;2.35;1.02;;;22.00;46.50;;;;;;5072760;28;43490;-71
2022/01/04 12:33:55;;;;;;;1.23;0.65;;;22.10;46.50;;;;;;5074534;27;44742;-70
2022/01/04 12:36:34;;;;;;;1.13;0.70;;;22.10;46.50;;;;;;5039506;28;45140;-70
2022/01/04 12:39:09;;;;;;;1.13;0.50;;;22.20;46.40;;;;;;5040143;28;43527;-70
2022/01/04 12:41:38;;;;;;;1.08;0.85;;;22.20;46.40;;;;;;5074613;27;43523;-71
2022/01/04 12:44:14;;;;;;;0.70;0.60;;;22.20;46.40;;;;;;5041272;28;45342;-71
2022/01/04 12:46:46;;;;;;;2.08;0.90;;;22.20;46.30;;;;;;5073499;27;44730;-71
2022/01/04 12:49:16;;;;;;;1.48;0.70;;;22.30;46.30;;;;;;5040747;28;43550;-69
2022/01/04 12:51:47;;;;;;;1.17;0.80;;;22.30;46.30;;;;;;5074529;28;44125;-68
2022/01/04 12:54:17;;;;;;;1.13;0.63;;;22.30;46.20;;;;;;5040076;28;43926;-69
2022/01/04 12:56:53;;;;;;;1.70;0.90;;;22.30;46.20;;;;;;5071834;27;43530;-71
2022/01/04 12:59:23;;;;;;;1.15;0.73;;;22.30;46.20;;;;;;5041571;28;43484;-70
2022/01/04 13:01:58;;;;;;;1.17;0.82;;;22.30;46.10;;;;;;5040092;28;43575;-68
2022/01/04 13:04:33;;;;;;;2.20;0.93;;;22.30;46.10;;;;;;5040372;28;44081;-70
2022/01/04 13:07:05;;;;;;;0.80;0.60;;;22.30;46.00;;;;;;5072625;27;44678;-69